Dent, Ohio
Current Conditions -  °F | °C
As of 5:38 AM on Saturday 22 Nov 2014 (Local Time) from KI69 Reporting Station
Overcast Overcast  
Wind Chill: 34°   Ceiling: 4700
Heat Index: 34°   Visibility: 10mi
Dew Point: 27°   Wind: 0mph
Humidity: 75%   Direction: NA
Pressure: 30.31"   Gusts: NA
Location:  39.1663°N, 84.6602°W
Report Text: KI69 221038Z AUTO 00000KT 10SM SCT031 SCT037 OVC047 01/M03 A3031 RMK AO1
Loading
Personal Weather Stations






























Interactive Weather Map New forecast layout! Learn more

10-Day Weather Forecast

Advertisements
Track Severe Weather on mobile